createdAt,value
2018-02-23T00:02:02.985Z,93.62
2018-02-23T00:04:30.136Z,57.95
2018-02-23T00:06:56.719Z,61.50
2018-02-23T00:09:24.056Z,49.33
2018-02-23T00:11:51.061Z,60.65
2018-02-23T00:14:17.655Z,53.80
2018-02-23T00:16:43.923Z,43.05
2018-02-23T00:19:10.406Z,47.17
2018-02-23T00:21:36.632Z,45.78
2018-02-23T00:24:03.488Z,43.85
2018-02-23T00:26:30.676Z,55.53
2018-02-23T00:28:57.300Z,49.05
2018-02-23T00:31:24.052Z,53.85
2018-02-23T00:33:51.141Z,42.92
2018-02-23T00:36:17.324Z,43.95
2018-02-23T00:38:43.479Z,38.95
2018-02-23T00:41:10.139Z,50.05
2018-02-23T00:43:36.324Z,49.60
2018-02-23T00:46:02.447Z,42.55
2018-02-23T00:48:28.547Z,48.20
2018-02-23T00:50:55.042Z,49.80
2018-02-23T00:53:22.063Z,43.58
2018-02-23T00:55:48.463Z,37.22
2018-02-23T00:58:14.677Z,43.90
2018-02-23T01:00:41.507Z,49.65
2018-02-23T01:03:07.677Z,43.13
2018-02-23T01:05:33.843Z,42.13
2018-02-23T01:08:00.212Z,59.80
2018-02-23T01:10:26.607Z,54.53
2018-02-23T01:12:53.568Z,50.67
2018-02-23T01:15:20.767Z,53.05
2018-02-23T01:17:47.894Z,42.03
2018-02-23T01:20:14.088Z,43.33
2018-02-23T01:22:40.590Z,41.88
2018-02-23T01:25:09.983Z,53.35
2018-02-23T01:27:40.424Z,50.65
2018-02-23T01:30:09.133Z,59.60
2018-02-23T01:32:37.373Z,40.45
2018-02-23T01:35:04.738Z,48.25
2018-02-23T01:37:31.221Z,52.00
2018-02-23T01:39:57.464Z,58.65
2018-02-23T01:42:23.721Z,52.75
2018-02-23T01:44:50.421Z,57.25
2018-02-23T01:47:16.757Z,69.37
2018-02-23T01:49:42.880Z,55.22
2018-02-23T01:52:09.176Z,43.55
2018-02-23T01:54:35.312Z,40.80
2018-02-23T01:57:02.190Z,44.20
2018-02-23T01:59:28.313Z,59.42
2018-02-23T02:01:54.501Z,45.35
2018-02-23T02:04:20.779Z,45.60
2018-02-23T02:06:46.987Z,36.95
2018-02-23T02:09:13.144Z,41.25
2018-02-23T02:11:39.336Z,33.60
2018-02-23T02:14:05.507Z,33.47
2018-02-23T02:16:32.294Z,33.97
2018-02-23T02:18:58.464Z,30.73
2018-02-23T02:21:24.910Z,34.30
2018-02-23T02:23:51.064Z,34.05
2018-02-23T02:26:17.254Z,36.72
2018-02-23T02:28:43.404Z,30.83
2018-02-23T02:31:10.259Z,34.20
2018-02-23T02:33:37.278Z,33.22
2018-02-23T02:36:03.415Z,31.40
2018-02-23T02:38:29.553Z,34.05
2018-02-23T02:40:55.710Z,31.20
2018-02-23T02:43:21.864Z,26.85
2018-02-23T02:45:48.004Z,29.42
2018-02-23T02:48:14.884Z,24.80
2018-02-23T02:50:41.019Z,30.02
2018-02-23T02:53:07.165Z,28.23
2018-02-23T02:55:33.258Z,27.08
2018-02-23T02:57:59.404Z,29.65
2018-02-23T03:00:25.539Z,25.27
2018-02-23T03:02:51.737Z,27.35
2018-02-23T03:05:17.907Z,35.83
2018-02-23T03:07:44.016Z,35.35
2018-02-23T03:10:10.135Z,36.40
2018-02-23T03:12:36.321Z,29.08
2018-02-23T03:15:02.467Z,30.55
2018-02-23T03:17:28.638Z,30.35
2018-02-23T03:19:55.528Z,33.25
2018-02-23T03:22:21.972Z,39.83
2018-02-23T03:24:48.112Z,28.23
2018-02-23T03:27:14.236Z,27.90
2018-02-23T03:29:40.378Z,38.88
2018-02-23T03:32:06.524Z,29.55
2018-02-23T03:34:32.667Z,34.83
2018-02-23T03:36:58.831Z,28.08
2018-02-23T03:39:24.957Z,27.83
2018-02-23T03:41:51.111Z,33.22
2018-02-23T03:44:17.230Z,31.45
2018-02-23T03:46:43.355Z,32.95
2018-02-23T03:49:09.488Z,33.22
2018-02-23T03:51:35.631Z,33.75
2018-02-23T03:54:01.756Z,35.92
2018-02-23T03:56:27.887Z,28.25
2018-02-23T03:58:54.111Z,29.85
2018-02-23T04:01:20.997Z,34.00
2018-02-23T04:03:47.115Z,30.55
2018-02-23T04:06:13.269Z,34.05
2018-02-23T04:08:40.136Z,33.83
2018-02-23T04:11:06.313Z,29.60
2018-02-23T04:13:32.439Z,36.00
2018-02-23T04:15:58.615Z,24.25
2018-02-23T04:18:24.754Z,33.22
2018-02-23T04:20:51.431Z,25.85
2018-02-23T04:23:17.688Z,26.50
2018-02-23T04:25:43.836Z,25.92
2018-02-23T04:28:09.983Z,37.60
2018-02-23T04:30:36.143Z,33.33
2018-02-23T04:33:02.364Z,32.83
2018-02-23T04:35:29.231Z,30.12
2018-02-23T04:37:55.405Z,40.55
2018-02-23T04:40:21.612Z,37.00
2018-02-23T04:42:47.722Z,32.00
2018-02-23T04:45:13.903Z,38.28
2018-02-23T04:47:40.043Z,36.22
2018-02-23T04:50:06.580Z,30.42
2018-02-23T04:52:32.716Z,33.92
2018-02-23T04:54:58.871Z,38.25
2018-02-23T04:57:24.998Z,45.12
2018-02-23T04:59:51.157Z,44.95
2018-02-23T05:02:17.295Z,50.30
2018-02-23T05:04:43.444Z,49.78
2018-02-23T05:07:09.604Z,44.90
2018-02-23T05:09:36.496Z,46.17
2018-02-23T05:12:02.624Z,36.60
2018-02-23T05:14:28.800Z,34.47
2018-02-23T05:16:54.962Z,35.72
2018-02-23T05:19:21.167Z,28.55
2018-02-23T05:21:47.303Z,40.10
2018-02-23T05:24:13.429Z,33.38
2018-02-23T05:26:39.573Z,36.72
2018-02-23T05:29:05.707Z,47.42
2018-02-23T05:31:31.888Z,43.45
2018-02-23T05:33:58.015Z,41.58
2018-02-23T05:36:25.120Z,34.47
2018-02-23T05:38:51.272Z,43.38
2018-02-23T05:41:17.423Z,38.00
2018-02-23T05:43:44.261Z,39.17
2018-02-23T05:46:10.393Z,53.17
2018-02-23T05:48:37.288Z,43.50
2018-02-23T05:51:03.460Z,39.10
2018-02-23T05:53:30.397Z,47.05
2018-02-23T05:55:56.536Z,44.63
2018-02-23T05:58:22.699Z,46.30
2018-02-23T06:00:48.898Z,47.65
2018-02-23T06:03:15.066Z,53.90
2018-02-23T06:05:41.286Z,36.53
2018-02-23T06:08:07.529Z,47.72
2018-02-23T06:10:33.797Z,44.50
2018-02-23T06:12:59.996Z,45.12
2018-02-23T06:15:32.250Z,45.30
2018-02-23T06:18:05.282Z,33.17
2018-02-23T06:20:31.505Z,46.03
2018-02-23T06:22:57.722Z,32.15
2018-02-23T06:25:24.610Z,29.45
2018-02-23T06:27:50.863Z,39.85
2018-02-23T06:30:17.043Z,28.52
2018-02-23T06:32:43.266Z,67.53
2018-02-23T06:35:12.245Z,46.78
2018-02-23T06:37:38.623Z,37.22
2018-02-23T06:40:05.000Z,27.85
2018-02-23T06:42:31.303Z,30.75
2018-02-23T06:44:58.210Z,32.63
2018-02-23T06:47:25.248Z,32.97
2018-02-23T06:49:52.193Z,33.58
2018-02-23T06:52:18.299Z,37.15
2018-02-23T06:54:45.254Z,32.47
2018-02-23T06:57:11.422Z,35.15
2018-02-23T06:59:37.580Z,34.67
2018-02-23T07:02:03.829Z,30.75
2018-02-23T07:04:30.713Z,32.95
2018-02-23T07:06:56.944Z,95.50
2018-02-23T07:09:23.389Z,65.05
2018-02-23T07:11:49.564Z,34.13
2018-02-23T07:14:15.716Z,35.60
2018-02-23T07:16:41.828Z,36.13
2018-02-23T07:19:07.973Z,44.75
2018-02-23T07:21:34.117Z,36.25
2018-02-23T07:24:00.242Z,37.08
2018-02-23T07:26:26.379Z,37.15
2018-02-23T07:28:52.583Z,37.75
2018-02-23T07:31:18.761Z,41.08
2018-02-23T07:33:44.970Z,48.15
2018-02-23T07:36:11.878Z,64.85
2018-02-23T07:38:38.142Z,54.75
2018-02-23T07:41:04.538Z,79.53
2018-02-23T07:43:30.699Z,67.18
2018-02-23T07:45:56.806Z,69.90
2018-02-23T07:48:22.969Z,57.13
2018-02-23T07:50:49.227Z,60.75
2018-02-23T07:53:15.385Z,56.53
2018-02-23T07:55:41.530Z,56.53
2018-02-23T07:58:07.659Z,47.67
2018-02-23T08:00:33.829Z,44.97
2018-02-23T08:03:00.823Z,47.75
2018-02-23T08:05:26.951Z,33.13
2018-02-23T08:07:53.117Z,30.30
2018-02-23T08:10:19.415Z,20.08
2018-02-23T08:12:45.513Z,22.67
2018-02-23T08:15:11.700Z,20.00
2018-02-23T08:17:38.576Z,27.75
2018-02-23T08:20:04.828Z,19.80
2018-02-23T08:22:30.959Z,16.17
2018-02-23T08:24:57.126Z,15.32
2018-02-23T08:27:23.306Z,32.22
2018-02-23T08:29:50.190Z,15.30
2018-02-23T08:32:16.335Z,12.73
2018-02-23T08:34:42.721Z,15.43
2018-02-23T08:37:08.859Z,11.12
2018-02-23T08:39:35.075Z,11.73
2018-02-23T08:42:01.270Z,17.55
2018-02-23T08:44:28.171Z,11.60
2018-02-23T08:46:54.291Z,26.30
2018-02-23T08:49:20.427Z,18.30
2018-02-23T08:51:46.581Z,20.25
2018-02-23T08:54:12.773Z,17.83
2018-02-23T08:56:39.721Z,13.07
2018-02-23T08:59:06.016Z,16.87
2018-02-23T09:01:32.156Z,9.13
2018-02-23T09:03:58.336Z,9.05
2018-02-23T09:06:24.499Z,10.55
2018-02-23T09:08:51.423Z,14.23
2018-02-23T09:11:17.576Z,15.68
2018-02-23T09:13:43.717Z,9.02
2018-02-23T09:16:10.060Z,12.52
2018-02-23T09:18:36.228Z,16.95
2018-02-23T09:21:02.504Z,11.48
2018-02-23T09:23:28.653Z,14.57
2018-02-23T09:25:54.791Z,17.02
2018-02-23T09:28:21.093Z,10.05
2018-02-23T09:30:47.223Z,13.00
2018-02-23T09:33:13.327Z,13.38
2018-02-23T09:35:39.519Z,14.15
2018-02-23T09:38:05.640Z,14.35
2018-02-23T09:40:32.309Z,12.98
2018-02-23T09:42:58.470Z,17.42
2018-02-23T09:45:24.631Z,15.27
2018-02-23T09:47:50.814Z,15.38
2018-02-23T09:50:17.702Z,9.95
2018-02-23T09:52:43.877Z,9.60
2018-02-23T09:55:10.078Z,13.02
2018-02-23T09:57:36.283Z,19.62
2018-02-23T10:00:02.511Z,12.50
2018-02-23T10:02:28.689Z,16.27
2018-02-23T10:07:53.010Z,14.25
2018-02-23T10:10:19.243Z,23.35
2018-02-23T10:12:46.151Z,16.75
2018-02-23T10:15:12.364Z,13.77
2018-02-23T10:17:38.542Z,36.47
2018-02-23T10:20:05.142Z,15.85
2018-02-23T10:22:31.391Z,40.40
2018-02-23T10:24:57.602Z,20.42
2018-02-23T10:27:23.755Z,21.27
2018-02-23T10:29:49.944Z,27.67
2018-02-23T10:32:16.099Z,21.75
2018-02-23T10:34:42.263Z,25.17
2018-02-23T10:37:09.172Z,11.50
2018-02-23T10:39:35.367Z,40.15
2018-02-23T10:42:02.255Z,18.75
2018-02-23T10:44:28.482Z,16.20
2018-02-23T10:46:54.689Z,16.73
2018-02-23T10:49:20.900Z,15.15
2018-02-23T10:51:47.095Z,14.00
2018-02-23T10:54:14.012Z,20.47
2018-02-23T10:56:40.185Z,15.93
2018-02-23T10:59:07.086Z,14.25
2018-02-23T11:01:33.311Z,57.88
2018-02-23T11:03:59.446Z,23.90
2018-02-23T11:06:25.651Z,90.68
2018-02-23T11:08:51.816Z,31.10
2018-02-23T11:11:17.993Z,13.80
2018-02-23T11:13:44.160Z,20.60
2018-02-23T11:16:10.333Z,18.67
2018-02-23T11:21:39.711Z,20.33
2018-02-23T11:24:05.889Z,16.37
2018-02-23T11:26:32.827Z,13.38
2018-02-23T11:28:58.998Z,18.47
2018-02-23T11:31:25.168Z,19.90
2018-02-23T11:33:51.339Z,16.70
2018-02-23T11:36:17.563Z,18.60
2018-02-23T11:38:43.704Z,13.37
2018-02-23T11:41:09.851Z,15.00
2018-02-23T11:43:36.109Z,14.80
2018-02-23T11:46:02.268Z,13.37
2018-02-23T11:48:28.466Z,13.43
2018-02-23T11:50:54.950Z,20.70
2018-02-23T11:53:21.136Z,19.23
2018-02-23T11:55:47.270Z,23.30
2018-02-23T11:58:13.431Z,19.03
2018-02-23T12:00:39.596Z,16.03
2018-02-23T12:03:05.852Z,17.10
2018-02-23T12:05:32.018Z,17.63
2018-02-23T12:07:58.904Z,21.33
2018-02-23T12:10:25.211Z,18.90
2018-02-23T12:12:52.915Z,24.00
2018-02-23T12:15:19.075Z,16.27
2018-02-23T12:17:45.203Z,13.03
2018-02-23T12:20:11.860Z,15.43
2018-02-23T12:22:38.746Z,18.87
2018-02-23T12:25:04.922Z,19.20
2018-02-23T12:27:31.871Z,17.93
2018-02-23T12:29:58.106Z,16.03
2018-02-23T12:32:26.074Z,18.53
2018-02-23T12:34:52.214Z,21.47
2018-02-23T12:37:18.355Z,17.67
2018-02-23T12:42:46.985Z,15.23
2018-02-23T12:45:13.137Z,17.83
2018-02-23T12:47:43.621Z,21.57
2018-02-23T12:50:10.675Z,21.27
2018-02-23T12:52:37.164Z,15.60
2018-02-23T12:55:05.506Z,19.97
2018-02-23T12:57:32.551Z,35.53
2018-02-23T12:59:59.495Z,15.27
2018-02-23T13:02:26.528Z,17.90
2018-02-23T13:04:52.688Z,20.30
2018-02-23T13:07:21.289Z,22.83
2018-02-23T13:09:47.543Z,16.63
2018-02-23T13:12:14.002Z,19.90
2018-02-23T13:14:46.580Z,20.23
2018-02-23T13:17:15.082Z,22.57
2018-02-23T13:19:41.445Z,17.97
2018-02-23T13:22:08.472Z,19.20
2018-02-23T13:24:34.866Z,20.80
2018-02-23T13:27:07.176Z,49.63
2018-02-23T13:29:34.261Z,24.30
2018-02-23T13:32:02.037Z,24.40
2018-02-23T13:34:28.252Z,21.73
2018-02-23T13:36:54.410Z,22.03
2018-02-23T13:39:20.679Z,19.47
2018-02-23T13:41:48.210Z,17.53
2018-02-23T13:44:15.206Z,17.43
2018-02-23T13:46:42.183Z,20.77
2018-02-23T13:49:09.388Z,19.33
2018-02-23T13:51:35.864Z,41.47
2018-02-23T13:54:09.322Z,25.90
2018-02-23T13:56:35.931Z,17.80
2018-02-23T13:59:02.942Z,19.40
2018-02-23T14:01:29.410Z,22.10
2018-02-23T14:03:55.641Z,18.60
2018-02-23T14:06:28.091Z,25.30
2018-02-23T14:08:55.575Z,21.33
2018-02-23T14:11:21.916Z,20.30
2018-02-23T14:13:48.560Z,23.47
2018-02-23T14:16:15.098Z,23.03
2018-02-23T14:18:41.757Z,20.57
2018-02-23T14:21:07.942Z,25.40
2018-02-23T14:23:35.181Z,20.80
2018-02-23T14:26:02.035Z,29.40
2018-02-23T14:28:28.157Z,23.17
2018-02-23T14:30:54.302Z,25.30
2018-02-23T14:33:20.474Z,22.50
2018-02-23T14:35:46.658Z,19.67
2018-02-23T14:38:13.730Z,18.53
2018-02-23T14:40:39.935Z,19.30
2018-02-23T14:43:06.075Z,24.70
2018-02-23T14:45:33.191Z,17.40
2018-02-23T14:47:59.716Z,19.53
2018-02-23T14:50:38.212Z,19.30
2018-02-23T14:53:04.491Z,24.30
2018-02-23T14:55:32.181Z,19.10
2018-02-23T14:57:59.052Z,18.17
2018-02-23T15:00:25.229Z,20.87
2018-02-23T15:02:51.482Z,23.23
2018-02-23T15:05:17.763Z,21.50
2018-02-23T15:07:44.019Z,22.00
2018-02-23T15:10:10.578Z,20.77
2018-02-23T15:12:36.850Z,19.90
2018-02-23T15:15:03.899Z,26.53
2018-02-23T15:17:32.342Z,21.70
2018-02-23T15:19:59.961Z,19.67
2018-02-23T15:22:26.543Z,17.50
2018-02-23T15:24:55.655Z,23.20
2018-02-23T15:27:23.013Z,20.03
2018-02-23T15:29:49.891Z,16.30
2018-02-23T15:32:39.220Z,19.93
2018-02-23T15:35:05.595Z,16.97
2018-02-23T15:37:45.627Z,19.20
2018-02-23T15:40:12.815Z,21.40
2018-02-23T15:42:46.084Z,21.30
2018-02-23T15:45:13.396Z,20.83
2018-02-23T15:47:42.231Z,18.33
2018-02-23T15:50:18.785Z,21.80
2018-02-23T15:52:47.373Z,17.43
2018-02-23T15:55:13.830Z,18.30
2018-02-23T15:57:47.444Z,19.60
2018-02-23T16:00:14.389Z,16.50
2018-02-23T16:02:44.169Z,18.60
2018-02-23T16:05:13.164Z,25.63
2018-02-23T16:07:39.491Z,34.40
2018-02-23T16:10:05.632Z,20.70
2018-02-23T16:12:31.807Z,21.20
2018-02-23T16:14:57.965Z,25.70
2018-02-23T16:17:24.150Z,18.80
2018-02-23T16:19:50.880Z,20.43
2018-02-23T16:22:17.149Z,17.53
2018-02-23T16:24:43.917Z,42.23
2018-02-23T16:27:10.261Z,51.80
2018-02-23T16:29:36.609Z,26.03
2018-02-23T16:32:02.834Z,25.37
2018-02-23T16:34:29.036Z,26.53
2018-02-23T16:36:56.720Z,27.53
2018-02-23T16:39:23.790Z,24.57
2018-02-23T16:41:50.588Z,18.83
2018-02-23T16:44:16.896Z,19.93
2018-02-23T16:46:43.078Z,22.30
2018-02-23T16:49:09.630Z,21.03
2018-02-23T16:51:35.796Z,24.83
2018-02-23T16:54:01.918Z,15.63
2018-02-23T16:56:28.085Z,19.03
2018-02-23T16:58:55.542Z,18.87
2018-02-23T17:01:22.023Z,14.32
2018-02-23T17:03:48.393Z,20.40
2018-02-23T17:06:15.058Z,21.10
2018-02-23T17:08:45.158Z,18.73
2018-02-23T17:11:13.163Z,17.67
2018-02-23T17:13:41.405Z,17.58
2018-02-23T17:16:13.233Z,19.48
2018-02-23T17:18:40.037Z,23.70
2018-02-23T17:21:06.577Z,20.60
2018-02-23T17:23:34.637Z,30.83
2018-02-23T17:26:01.854Z,20.73
2018-02-23T17:28:28.425Z,31.35
2018-02-23T17:30:54.768Z,16.52
2018-02-23T17:33:21.198Z,28.38
2018-02-23T17:35:48.167Z,18.25
2018-02-23T17:38:14.939Z,20.42
2018-02-23T17:40:41.136Z,16.15
2018-02-23T17:43:07.288Z,20.05
2018-02-23T17:45:33.611Z,15.88
2018-02-23T17:47:59.773Z,18.62
2018-02-23T17:50:25.939Z,17.67
2018-02-23T17:52:52.108Z,24.37
2018-02-23T17:55:18.554Z,17.62
2018-02-23T17:57:46.357Z,31.80
2018-02-23T18:00:13.175Z,18.40
2018-02-23T18:02:39.453Z,23.75
2018-02-23T18:05:08.437Z,21.40
2018-02-23T18:07:34.952Z,17.77
2018-02-23T18:10:02.724Z,19.42
2018-02-23T18:12:31.839Z,20.45
2018-02-23T18:14:58.568Z,20.05
2018-02-23T18:17:25.246Z,19.77
2018-02-23T18:19:51.473Z,19.33
2018-02-23T18:22:17.983Z,22.05
2018-02-23T18:24:44.250Z,27.40
2018-02-23T18:27:10.448Z,19.90
2018-02-23T18:29:36.934Z,18.73
2018-02-23T18:32:03.330Z,19.35
2018-02-23T18:34:29.542Z,26.10
2018-02-23T18:36:55.798Z,24.75
2018-02-23T18:39:31.424Z,25.37
2018-02-23T18:41:58.414Z,18.65
2018-02-23T18:44:25.488Z,19.87
2018-02-23T18:46:52.289Z,20.92
2018-02-23T18:49:20.421Z,20.85
2018-02-23T18:51:47.443Z,23.08
2018-02-23T18:54:14.197Z,22.25
2018-02-23T18:56:40.449Z,27.00
2018-02-23T18:59:07.274Z,22.48
2018-02-23T19:01:33.846Z,19.65
2018-02-23T19:04:02.746Z,41.67
2018-02-23T19:06:29.923Z,35.72
2018-02-23T19:08:56.246Z,27.87
2018-02-23T19:11:22.534Z,26.62
2018-02-23T19:13:48.917Z,32.63
2018-02-23T19:16:15.641Z,33.92
2018-02-23T19:18:43.001Z,36.25
2018-02-23T19:21:09.410Z,37.20
2018-02-23T19:23:36.289Z,34.65
2018-02-23T19:26:02.558Z,36.00
2018-02-23T19:28:28.786Z,28.73
2018-02-23T19:30:54.976Z,31.92
2018-02-23T19:33:21.223Z,31.12
2018-02-23T19:35:47.903Z,27.02
2018-02-23T19:38:15.254Z,21.77
2018-02-23T19:40:41.494Z,20.75
2018-02-23T19:43:07.704Z,22.73
2018-02-23T19:45:35.085Z,23.25
2018-02-23T19:48:01.441Z,19.02
2018-02-23T19:50:27.624Z,19.25
2018-02-23T19:52:54.970Z,23.02
2018-02-23T19:55:21.155Z,16.33
2018-02-23T19:57:48.393Z,20.23
2018-02-23T20:00:15.297Z,20.85
2018-02-23T20:02:42.428Z,23.75
2018-02-23T20:05:09.873Z,20.70
2018-02-23T20:07:36.197Z,18.42
2018-02-23T20:10:02.786Z,19.67
2018-02-23T20:12:33.420Z,20.92
2018-02-23T20:14:59.919Z,16.00
2018-02-23T20:17:26.266Z,19.58
2018-02-23T20:19:52.506Z,24.80
2018-02-23T20:22:18.871Z,19.90
2018-02-23T20:24:47.016Z,17.25
2018-02-23T20:27:13.444Z,18.20
2018-02-23T20:29:39.723Z,16.62
2018-02-23T20:32:06.251Z,17.58
2018-02-23T20:34:32.954Z,19.30
2018-02-23T20:37:04.312Z,19.35
2018-02-23T20:39:35.765Z,19.27
2018-02-23T20:42:04.837Z,22.75
2018-02-23T20:44:33.406Z,17.23
2018-02-23T20:47:03.238Z,20.67
2018-02-23T20:49:30.135Z,18.37
2018-02-23T20:51:56.263Z,15.35
2018-02-23T20:54:23.496Z,19.70
2018-02-23T20:56:49.989Z,23.45
2018-02-23T20:59:16.835Z,22.73
2018-02-23T21:01:43.185Z,21.48
2018-02-23T21:04:09.426Z,24.70
2018-02-23T21:06:36.004Z,30.55
2018-02-23T21:09:02.224Z,54.30
2018-02-23T21:11:29.174Z,37.15
2018-02-23T21:13:55.912Z,30.23
2018-02-23T21:16:22.216Z,23.60
2018-02-23T21:18:48.544Z,29.90
2018-02-23T21:21:15.733Z,27.00
2018-02-23T21:23:42.377Z,22.08
2018-02-23T21:26:09.581Z,24.05
2018-02-23T21:28:35.811Z,19.87
2018-02-23T21:31:02.909Z,19.60
2018-02-23T21:33:29.553Z,17.00
2018-02-23T21:35:55.722Z,14.65
2018-02-23T21:38:22.379Z,21.30
2018-02-23T21:40:48.708Z,24.08
2018-02-23T21:43:15.293Z,16.05
2018-02-23T21:45:41.942Z,15.80
2018-02-23T21:48:08.571Z,13.95
2018-02-23T21:50:34.911Z,18.70
2018-02-23T21:53:02.238Z,17.12
2018-02-23T21:55:28.437Z,18.70
2018-02-23T21:57:54.630Z,15.13
2018-02-23T22:00:21.278Z,15.52
2018-02-23T22:02:47.886Z,18.75
2018-02-23T22:05:14.651Z,22.80
2018-02-23T22:07:41.500Z,22.60
2018-02-23T22:10:08.257Z,19.27
2018-02-23T22:12:34.773Z,18.50
2018-02-23T22:15:00.962Z,18.20
2018-02-23T22:17:27.123Z,20.10
2018-02-23T22:19:53.243Z,22.45
2018-02-23T22:22:22.244Z,17.92
2018-02-23T22:24:49.392Z,16.57
2018-02-23T22:27:16.475Z,20.92
2018-02-23T22:29:42.657Z,20.92
2018-02-23T22:32:11.925Z,22.40
2018-02-23T22:34:38.289Z,22.73
2018-02-23T22:37:04.744Z,30.52
2018-02-23T22:39:30.977Z,22.20
2018-02-23T22:41:57.330Z,21.23
2018-02-23T22:44:23.521Z,25.37
2018-02-23T22:46:50.412Z,23.00
2018-02-23T22:49:16.816Z,27.67
2018-02-23T22:51:42.953Z,26.48
2018-02-23T22:54:09.062Z,27.05
2018-02-23T22:56:35.196Z,28.83
2018-02-23T22:59:01.956Z,37.78
2018-02-23T23:01:29.117Z,29.77
2018-02-23T23:03:56.404Z,26.10
2018-02-23T23:06:22.543Z,34.92
2018-02-23T23:08:48.643Z,30.85
2018-02-23T23:11:15.002Z,25.00
2018-02-23T23:13:41.168Z,31.17
2018-02-23T23:16:07.312Z,30.23
2018-02-23T23:18:33.469Z,32.05
2018-02-23T23:20:59.891Z,32.70
2018-02-23T23:23:27.483Z,38.50
2018-02-23T23:25:53.723Z,28.95
2018-02-23T23:28:19.829Z,36.13
2018-02-23T23:30:46.023Z,33.67
2018-02-23T23:33:13.270Z,28.17
2018-02-23T23:35:39.634Z,37.25
2018-02-23T23:38:06.127Z,27.67
2018-02-23T23:40:32.347Z,53.75
2018-02-23T23:42:58.735Z,57.97
2018-02-23T23:45:26.290Z,43.05
2018-02-23T23:47:53.196Z,43.58
2018-02-23T23:50:19.347Z,52.28
2018-02-23T23:52:45.466Z,60.08
2018-02-23T23:55:12.549Z,41.97
2018-02-23T23:57:39.054Z,53.03
